Island Lake, Washington
Current Conditions -  °F | °C
As of 9:35 PM on Wednesday 26 Nov 2014 (Local Time) from KPWT Reporting Station
Broken Clouds Broken Clouds  
Wind Chill: 54°   Ceiling: 500
Heat Index: 54°   Visibility: 10mi
Dew Point: 52°   Wind: 13mph
Humidity: 94%   Direction: 210°SSW
Pressure: 29.89"   Gusts: NA
Location:  47.7571°N, 122.623°W
Report Text: KPWT 270535Z AUTO 21011KT 10SM BKN005 BKN012 BKN075 12/11 A2989 RMK AO1 P0001
Loading
Personal Weather Stations






























Interactive Weather Map New forecast layout! Learn more

10-Day Weather Forecast

Advertisements
Track Severe Weather on mobile